sensor_id;sensor_type;location;lat;lon;timestamp;P1;durP1;ratioP1;P2;durP2;ratioP2
18999;SDS011;9633;50.980;13.850;2023-04-12T00:00:53;10.27;;;5.83;;
18999;SDS011;9633;50.980;13.850;2023-04-12T00:02:26;7.47;;;5.63;;
18999;SDS011;9633;50.980;13.850;2023-04-12T00:03:59;7.67;;;5.63;;
18999;SDS011;9633;50.980;13.850;2023-04-12T00:05:36;9.97;;;5.93;;
18999;SDS011;9633;50.980;13.850;2023-04-12T00:07:09;9.00;;;5.90;;
18999;SDS011;9633;50.980;13.850;2023-04-12T00:08:43;9.47;;;6.70;;
18999;SDS011;9633;50.980;13.850;2023-04-12T00:10:17;11.10;;;7.17;;
18999;SDS011;9633;50.980;13.850;2023-04-12T00:11:50;8.43;;;6.13;;
18999;SDS011;9633;50.980;13.850;2023-04-12T00:13:22;10.07;;;6.53;;
18999;SDS011;9633;50.980;13.850;2023-04-12T00:14:56;9.80;;;6.93;;
18999;SDS011;9633;50.980;13.850;2023-04-12T00:16:29;7.77;;;6.23;;
18999;SDS011;9633;50.980;13.850;2023-04-12T00:18:02;10.07;;;6.40;;
18999;SDS011;9633;50.980;13.850;2023-04-12T00:19:36;8.50;;;5.87;;
18999;SDS011;9633;50.980;13.850;2023-04-12T00:21:11;8.60;;;6.13;;
18999;SDS011;9633;50.980;13.850;2023-04-12T00:22:49;9.13;;;6.30;;
18999;SDS011;9633;50.980;13.850;2023-04-12T00:24:25;10.83;;;7.10;;
18999;SDS011;9633;50.980;13.850;2023-04-12T00:25:58;9.87;;;7.13;;
18999;SDS011;9633;50.980;13.850;2023-04-12T00:27:31;11.40;;;8.13;;
18999;SDS011;9633;50.980;13.850;2023-04-12T00:29:03;14.97;;;8.33;;
18999;SDS011;9633;50.980;13.850;2023-04-12T00:30:37;13.33;;;8.20;;
18999;SDS011;9633;50.980;13.850;2023-04-12T00:32:11;12.53;;;7.60;;
18999;SDS011;9633;50.980;13.850;2023-04-12T00:33:44;10.97;;;6.97;;
18999;SDS011;9633;50.980;13.850;2023-04-12T00:35:17;11.77;;;7.00;;
18999;SDS011;9633;50.980;13.850;2023-04-12T00:36:50;9.97;;;6.37;;
18999;SDS011;9633;50.980;13.850;2023-04-12T00:38:23;9.40;;;6.10;;
18999;SDS011;9633;50.980;13.850;2023-04-12T00:39:58;8.63;;;6.67;;
18999;SDS011;9633;50.980;13.850;2023-04-12T00:41:31;8.30;;;6.10;;
18999;SDS011;9633;50.980;13.850;2023-04-12T00:43:04;10.47;;;6.33;;
18999;SDS011;9633;50.980;13.850;2023-04-12T00:44:38;10.40;;;7.17;;
18999;SDS011;9633;50.980;13.850;2023-04-12T00:46:11;11.00;;;7.53;;
18999;SDS011;9633;50.980;13.850;2023-04-12T00:47:44;11.57;;;7.07;;
18999;SDS011;9633;50.980;13.850;2023-04-12T00:49:18;10.27;;;6.80;;
18999;SDS011;9633;50.980;13.850;2023-04-12T00:50:51;10.17;;;6.57;;
18999;SDS011;9633;50.980;13.850;2023-04-12T00:52:25;7.77;;;6.17;;
18999;SDS011;9633;50.980;13.850;2023-04-12T00:54:04;10.47;;;7.50;;
18999;SDS011;9633;50.980;13.850;2023-04-12T00:55:41;9.10;;;6.93;;
18999;SDS011;9633;50.980;13.850;2023-04-12T00:57:16;11.90;;;7.17;;
18999;SDS011;9633;50.980;13.850;2023-04-12T00:58:49;12.57;;;7.80;;
18999;SDS011;9633;50.980;13.850;2023-04-12T01:00:22;11.93;;;7.60;;
18999;SDS011;9633;50.980;13.850;2023-04-12T01:01:56;11.37;;;6.93;;
18999;SDS011;9633;50.980;13.850;2023-04-12T01:03:30;10.47;;;6.67;;
18999;SDS011;9633;50.980;13.850;2023-04-12T01:05:04;10.97;;;7.77;;
18999;SDS011;9633;50.980;13.850;2023-04-12T01:06:41;9.20;;;6.83;;
18999;SDS011;9633;50.980;13.850;2023-04-12T01:08:27;10.50;;;7.70;;
18999;SDS011;9633;50.980;13.850;2023-04-12T01:10:12;10.77;;;7.47;;
18999;SDS011;9633;50.980;13.850;2023-04-12T01:12:19;11.57;;;6.80;;
18999;SDS011;9633;50.980;13.850;2023-04-12T01:14:02;10.30;;;6.23;;
18999;SDS011;9633;50.980;13.850;2023-04-12T01:15:44;9.03;;;7.00;;
18999;SDS011;9633;50.980;13.850;2023-04-12T01:17:25;12.43;;;8.13;;
18999;SDS011;9633;50.980;13.850;2023-04-12T01:19:03;11.27;;;7.50;;
18999;SDS011;9633;50.980;13.850;2023-04-12T01:20:49;11.27;;;7.10;;
18999;SDS011;9633;50.980;13.850;2023-04-12T01:22:29;11.73;;;8.07;;
18999;SDS011;9633;50.980;13.850;2023-04-12T01:24:19;13.60;;;7.83;;
18999;SDS011;9633;50.980;13.850;2023-04-12T01:26:05;12.90;;;7.60;;
18999;SDS011;9633;50.980;13.850;2023-04-12T01:27:48;11.27;;;8.07;;
18999;SDS011;9633;50.980;13.850;2023-04-12T01:29:24;11.90;;;8.53;;
18999;SDS011;9633;50.980;13.850;2023-04-12T01:30:58;12.13;;;8.23;;
18999;SDS011;9633;50.980;13.850;2023-04-12T01:32:33;13.17;;;8.03;;
18999;SDS011;9633;50.980;13.850;2023-04-12T01:34:08;11.35;;;7.80;;
18999;SDS011;9633;50.980;13.850;2023-04-12T01:35:43;11.27;;;8.20;;
18999;SDS011;9633;50.980;13.850;2023-04-12T01:37:16;12.37;;;8.30;;
18999;SDS011;9633;50.980;13.850;2023-04-12T01:38:51;10.00;;;7.10;;
18999;SDS011;9633;50.980;13.850;2023-04-12T01:40:26;14.00;;;7.60;;
18999;SDS011;9633;50.980;13.850;2023-04-12T01:42:00;10.90;;;7.60;;
18999;SDS011;9633;50.980;13.850;2023-04-12T01:43:34;11.97;;;7.80;;
18999;SDS011;9633;50.980;13.850;2023-04-12T01:45:13;10.25;;;7.00;;
18999;SDS011;9633;50.980;13.850;2023-04-12T01:46:46;10.60;;;6.67;;
18999;SDS011;9633;50.980;13.850;2023-04-12T01:48:20;13.33;;;7.67;;
18999;SDS011;9633;50.980;13.850;2023-04-12T01:49:54;12.13;;;7.90;;
18999;SDS011;9633;50.980;13.850;2023-04-12T01:51:37;11.43;;;7.70;;
18999;SDS011;9633;50.980;13.850;2023-04-12T01:53:17;12.47;;;7.97;;
18999;SDS011;9633;50.980;13.850;2023-04-12T01:54:53;12.10;;;8.23;;
18999;SDS011;9633;50.980;13.850;2023-04-12T01:56:30;14.60;;;7.73;;
18999;SDS011;9633;50.980;13.850;2023-04-12T01:58:10;12.23;;;8.33;;
18999;SDS011;9633;50.980;13.850;2023-04-12T01:59:47;12.87;;;8.37;;
18999;SDS011;9633;50.980;13.850;2023-04-12T02:01:21;11.60;;;7.77;;
18999;SDS011;9633;50.980;13.850;2023-04-12T02:02:56;12.13;;;7.63;;
18999;SDS011;9633;50.980;13.850;2023-04-12T02:04:31;12.77;;;8.63;;
18999;SDS011;9633;50.980;13.850;2023-04-12T02:06:05;11.97;;;7.73;;
18999;SDS011;9633;50.980;13.850;2023-04-12T02:07:38;12.30;;;7.63;;
18999;SDS011;9633;50.980;13.850;2023-04-12T02:09:13;11.32;;;7.35;;
18999;SDS011;9633;50.980;13.850;2023-04-12T02:10:46;8.95;;;7.38;;
18999;SDS011;9633;50.980;13.850;2023-04-12T02:12:21;9.40;;;7.20;;
18999;SDS011;9633;50.980;13.850;2023-04-12T02:13:54;10.52;;;7.40;;
18999;SDS011;9633;50.980;13.850;2023-04-12T02:15:29;14.50;;;7.87;;
18999;SDS011;9633;50.980;13.850;2023-04-12T02:17:03;10.80;;;7.63;;
18999;SDS011;9633;50.980;13.850;2023-04-12T02:18:36;12.48;;;7.72;;
18999;SDS011;9633;50.980;13.850;2023-04-12T02:20:12;13.52;;;7.55;;
18999;SDS011;9633;50.980;13.850;2023-04-12T02:21:48;12.35;;;7.43;;
18999;SDS011;9633;50.980;13.850;2023-04-12T02:23:21;10.10;;;6.97;;
18999;SDS011;9633;50.980;13.850;2023-04-12T02:24:54;9.97;;;7.10;;
18999;SDS011;9633;50.980;13.850;2023-04-12T02:26:27;12.43;;;7.70;;
18999;SDS011;9633;50.980;13.850;2023-04-12T02:28:01;9.48;;;7.32;;
18999;SDS011;9633;50.980;13.850;2023-04-12T02:29:34;11.83;;;7.50;;
18999;SDS011;9633;50.980;13.850;2023-04-12T02:31:09;11.03;;;7.17;;
18999;SDS011;9633;50.980;13.850;2023-04-12T02:32:44;11.67;;;7.43;;
18999;SDS011;9633;50.980;13.850;2023-04-12T02:34:24;9.70;;;7.03;;
18999;SDS011;9633;50.980;13.850;2023-04-12T02:36:09;10.27;;;6.70;;
18999;SDS011;9633;50.980;13.850;2023-04-12T02:37:44;8.30;;;6.40;;
18999;SDS011;9633;50.980;13.850;2023-04-12T02:39:18;11.52;;;7.47;;
18999;SDS011;9633;50.980;13.850;2023-04-12T02:40:54;10.90;;;6.90;;
18999;SDS011;9633;50.980;13.850;2023-04-12T02:42:27;9.67;;;5.97;;
18999;SDS011;9633;50.980;13.850;2023-04-12T02:44:00;9.37;;;6.30;;
18999;SDS011;9633;50.980;13.850;2023-04-12T02:45:32;9.83;;;6.97;;
18999;SDS011;9633;50.980;13.850;2023-04-12T02:47:07;9.27;;;6.80;;
18999;SDS011;9633;50.980;13.850;2023-04-12T02:48:41;8.47;;;6.37;;
18999;SDS011;9633;50.980;13.850;2023-04-12T02:50:14;9.00;;;6.50;;
18999;SDS011;9633;50.980;13.850;2023-04-12T02:51:54;11.35;;;6.63;;
18999;SDS011;9633;50.980;13.850;2023-04-12T02:53:33;9.32;;;6.60;;
18999;SDS011;9633;50.980;13.850;2023-04-12T02:55:15;10.57;;;6.40;;
18999;SDS011;9633;50.980;13.850;2023-04-12T02:56:48;13.10;;;6.70;;
18999;SDS011;9633;50.980;13.850;2023-04-12T02:58:39;11.93;;;6.53;;
18999;SDS011;9633;50.980;13.850;2023-04-12T03:00:15;11.27;;;7.07;;
18999;SDS011;9633;50.980;13.850;2023-04-12T03:01:52;9.40;;;6.60;;
18999;SDS011;9633;50.980;13.850;2023-04-12T03:03:32;9.53;;;6.33;;
18999;SDS011;9633;50.980;13.850;2023-04-12T03:05:20;8.93;;;6.30;;
18999;SDS011;9633;50.980;13.850;2023-04-12T03:06:55;12.03;;;6.37;;
18999;SDS011;9633;50.980;13.850;2023-04-12T03:08:45;12.13;;;6.97;;
18999;SDS011;9633;50.980;13.850;2023-04-12T03:10:19;12.40;;;6.60;;
18999;SDS011;9633;50.980;13.850;2023-04-12T03:12:00;9.40;;;6.65;;
18999;SDS011;9633;50.980;13.850;2023-04-12T03:13:38;11.03;;;6.50;;
18999;SDS011;9633;50.980;13.850;2023-04-12T03:15:11;8.73;;;6.37;;
18999;SDS011;9633;50.980;13.850;2023-04-12T03:16:48;12.27;;;6.87;;
18999;SDS011;9633;50.980;13.850;2023-04-12T03:18:22;8.23;;;6.03;;
18999;SDS011;9633;50.980;13.850;2023-04-12T03:20:03;8.10;;;5.80;;
18999;SDS011;9633;50.980;13.850;2023-04-12T03:21:43;9.77;;;6.13;;
18999;SDS011;9633;50.980;13.850;2023-04-12T03:23:17;9.02;;;5.85;;
18999;SDS011;9633;50.980;13.850;2023-04-12T03:24:56;10.98;;;6.05;;
18999;SDS011;9633;50.980;13.850;2023-04-12T03:26:29;10.30;;;6.80;;
18999;SDS011;9633;50.980;13.850;2023-04-12T03:28:13;11.33;;;6.27;;
18999;SDS011;9633;50.980;13.850;2023-04-12T03:29:51;8.97;;;6.20;;
18999;SDS011;9633;50.980;13.850;2023-04-12T03:31:26;11.15;;;6.57;;
18999;SDS011;9633;50.980;13.850;2023-04-12T03:33:04;10.23;;;6.43;;
18999;SDS011;9633;50.980;13.850;2023-04-12T03:34:38;9.73;;;6.00;;
18999;SDS011;9633;50.980;13.850;2023-04-12T03:36:17;8.05;;;5.40;;
18999;SDS011;9633;50.980;13.850;2023-04-12T03:37:56;9.05;;;5.82;;
18999;SDS011;9633;50.980;13.850;2023-04-12T03:39:29;8.97;;;5.30;;
18999;SDS011;9633;50.980;13.850;2023-04-12T03:41:02;8.25;;;5.15;;
18999;SDS011;9633;50.980;13.850;2023-04-12T03:42:40;11.68;;;5.93;;
18999;SDS011;9633;50.980;13.850;2023-04-12T03:44:15;8.77;;;5.70;;
18999;SDS011;9633;50.980;13.850;2023-04-12T03:45:49;9.98;;;5.63;;
18999;SDS011;9633;50.980;13.850;2023-04-12T03:47:22;8.48;;;5.60;;
18999;SDS011;9633;50.980;13.850;2023-04-12T03:48:55;8.20;;;5.53;;
18999;SDS011;9633;50.980;13.850;2023-04-12T03:50:28;10.73;;;6.05;;
18999;SDS011;9633;50.980;13.850;2023-04-12T03:52:14;10.82;;;6.25;;
18999;SDS011;9633;50.980;13.850;2023-04-12T03:53:48;10.05;;;5.88;;
18999;SDS011;9633;50.980;13.850;2023-04-12T03:55:21;8.23;;;5.82;;
18999;SDS011;9633;50.980;13.850;2023-04-12T03:56:56;7.85;;;5.60;;
18999;SDS011;9633;50.980;13.850;2023-04-12T03:58:35;8.93;;;5.73;;
18999;SDS011;9633;50.980;13.850;2023-04-12T04:00:10;7.80;;;5.35;;
18999;SDS011;9633;50.980;13.850;2023-04-12T04:02:03;7.87;;;5.57;;
18999;SDS011;9633;50.980;13.850;2023-04-12T04:03:40;8.65;;;5.80;;
18999;SDS011;9633;50.980;13.850;2023-04-12T04:05:23;9.68;;;6.03;;
18999;SDS011;9633;50.980;13.850;2023-04-12T04:06:56;10.25;;;5.95;;
18999;SDS011;9633;50.980;13.850;2023-04-12T04:08:32;9.02;;;6.20;;
18999;SDS011;9633;50.980;13.850;2023-04-12T04:10:06;9.18;;;5.88;;
18999;SDS011;9633;50.980;13.850;2023-04-12T04:11:43;9.82;;;6.35;;
18999;SDS011;9633;50.980;13.850;2023-04-12T04:13:17;11.80;;;6.87;;
18999;SDS011;9633;50.980;13.850;2023-04-12T04:14:50;11.85;;;6.93;;
18999;SDS011;9633;50.980;13.850;2023-04-12T04:16:35;11.43;;;7.10;;
18999;SDS011;9633;50.980;13.850;2023-04-12T04:18:10;11.25;;;6.78;;
18999;SDS011;9633;50.980;13.850;2023-04-12T04:19:43;9.93;;;6.53;;
18999;SDS011;9633;50.980;13.850;2023-04-12T04:21:16;10.75;;;7.18;;
18999;SDS011;9633;50.980;13.850;2023-04-12T04:22:50;9.90;;;6.63;;
18999;SDS011;9633;50.980;13.850;2023-04-12T04:24:27;10.38;;;7.00;;
18999;SDS011;9633;50.980;13.850;2023-04-12T04:26:04;11.30;;;6.80;;
18999;SDS011;9633;50.980;13.850;2023-04-12T04:27:43;10.47;;;6.20;;
18999;SDS011;9633;50.980;13.850;2023-04-12T04:29:17;13.23;;;6.97;;
18999;SDS011;9633;50.980;13.850;2023-04-12T04:30:50;8.80;;;6.07;;
18999;SDS011;9633;50.980;13.850;2023-04-12T04:32:26;11.50;;;6.90;;
18999;SDS011;9633;50.980;13.850;2023-04-12T04:34:01;9.00;;;6.32;;
18999;SDS011;9633;50.980;13.850;2023-04-12T04:35:37;10.43;;;6.43;;
18999;SDS011;9633;50.980;13.850;2023-04-12T04:37:30;8.60;;;5.60;;
18999;SDS011;9633;50.980;13.850;2023-04-12T04:39:05;10.37;;;6.00;;
18999;SDS011;9633;50.980;13.850;2023-04-12T04:40:45;8.68;;;5.57;;
18999;SDS011;9633;50.980;13.850;2023-04-12T04:42:22;8.65;;;5.97;;
18999;SDS011;9633;50.980;13.850;2023-04-12T04:44:01;8.90;;;6.27;;
18999;SDS011;9633;50.980;13.850;2023-04-12T04:45:36;10.27;;;6.80;;
18999;SDS011;9633;50.980;13.850;2023-04-12T04:47:11;10.27;;;5.60;;
18999;SDS011;9633;50.980;13.850;2023-04-12T04:48:45;9.63;;;6.80;;
18999;SDS011;9633;50.980;13.850;2023-04-12T04:50:17;10.03;;;6.07;;
18999;SDS011;9633;50.980;13.850;2023-04-12T04:51:55;13.00;;;6.93;;
18999;SDS011;9633;50.980;13.850;2023-04-12T04:53:29;7.53;;;5.70;;
18999;SDS011;9633;50.980;13.850;2023-04-12T04:55:04;8.70;;;5.50;;
18999;SDS011;9633;50.980;13.850;2023-04-12T04:56:43;8.87;;;5.63;;
18999;SDS011;9633;50.980;13.850;2023-04-12T04:58:19;8.33;;;5.90;;
18999;SDS011;9633;50.980;13.850;2023-04-12T04:59:52;7.10;;;5.53;;
18999;SDS011;9633;50.980;13.850;2023-04-12T05:01:26;7.30;;;4.37;;
18999;SDS011;9633;50.980;13.850;2023-04-12T05:03:02;6.17;;;3.87;;
18999;SDS011;9633;50.980;13.850;2023-04-12T05:04:36;5.10;;;3.70;;
18999;SDS011;9633;50.980;13.850;2023-04-12T05:06:10;5.73;;;3.60;;
18999;SDS011;9633;50.980;13.850;2023-04-12T05:07:43;4.60;;;3.60;;
18999;SDS011;9633;50.980;13.850;2023-04-12T05:09:15;4.00;;;2.90;;
18999;SDS011;9633;50.980;13.850;2023-04-12T05:10:55;3.27;;;2.60;;
18999;SDS011;9633;50.980;13.850;2023-04-12T05:12:33;6.33;;;3.20;;
18999;SDS011;9633;50.980;13.850;2023-04-12T05:14:07;3.77;;;2.67;;
18999;SDS011;9633;50.980;13.850;2023-04-12T05:15:43;4.10;;;3.00;;
18999;SDS011;9633;50.980;13.850;2023-04-12T05:17:16;3.10;;;2.80;;
18999;SDS011;9633;50.980;13.850;2023-04-12T05:18:49;3.90;;;3.40;;
18999;SDS011;9633;50.980;13.850;2023-04-12T05:20:22;5.30;;;3.47;;
18999;SDS011;9633;50.980;13.850;2023-04-12T05:21:56;4.73;;;3.47;;
18999;SDS011;9633;50.980;13.850;2023-04-12T05:23:31;6.73;;;3.87;;
18999;SDS011;9633;50.980;13.850;2023-04-12T05:25:06;5.27;;;3.57;;
18999;SDS011;9633;50.980;13.850;2023-04-12T05:26:48;5.70;;;3.83;;
18999;SDS011;9633;50.980;13.850;2023-04-12T05:28:23;5.63;;;4.10;;
18999;SDS011;9633;50.980;13.850;2023-04-12T05:29:56;5.20;;;3.90;;
18999;SDS011;9633;50.980;13.850;2023-04-12T05:31:29;5.00;;;4.23;;
18999;SDS011;9633;50.980;13.850;2023-04-12T05:33:07;5.83;;;4.47;;
18999;SDS011;9633;50.980;13.850;2023-04-12T05:34:46;6.87;;;5.40;;
18999;SDS011;9633;50.980;13.850;2023-04-12T05:36:19;5.80;;;4.87;;
18999;SDS011;9633;50.980;13.850;2023-04-12T05:37:53;6.67;;;4.87;;
18999;SDS011;9633;50.980;13.850;2023-04-12T05:39:28;5.63;;;4.80;;
18999;SDS011;9633;50.980;13.850;2023-04-12T05:41:02;6.27;;;4.67;;
18999;SDS011;9633;50.980;13.850;2023-04-12T05:42:37;7.50;;;5.17;;
18999;SDS011;9633;50.980;13.850;2023-04-12T05:44:11;7.60;;;5.20;;
18999;SDS011;9633;50.980;13.850;2023-04-12T05:45:44;5.90;;;4.77;;
18999;SDS011;9633;50.980;13.850;2023-04-12T05:47:18;7.67;;;5.00;;
18999;SDS011;9633;50.980;13.850;2023-04-12T05:48:52;7.80;;;4.90;;
18999;SDS011;9633;50.980;13.850;2023-04-12T05:50:25;7.00;;;4.37;;
18999;SDS011;9633;50.980;13.850;2023-04-12T05:51:58;5.20;;;4.47;;
18999;SDS011;9633;50.980;13.850;2023-04-12T05:53:31;6.83;;;5.07;;
18999;SDS011;9633;50.980;13.850;2023-04-12T05:55:07;5.53;;;4.43;;
18999;SDS011;9633;50.980;13.850;2023-04-12T05:56:44;6.67;;;5.30;;
18999;SDS011;9633;50.980;13.850;2023-04-12T05:58:17;7.03;;;4.73;;
18999;SDS011;9633;50.980;13.850;2023-04-12T05:59:54;6.10;;;4.60;;
18999;SDS011;9633;50.980;13.850;2023-04-12T06:01:27;6.20;;;5.17;;
18999;SDS011;9633;50.980;13.850;2023-04-12T06:03:03;7.67;;;5.47;;
18999;SDS011;9633;50.980;13.850;2023-04-12T06:04:37;6.40;;;5.30;;
18999;SDS011;9633;50.980;13.850;2023-04-12T06:06:21;7.20;;;5.50;;
18999;SDS011;9633;50.980;13.850;2023-04-12T06:07:54;7.77;;;5.30;;
18999;SDS011;9633;50.980;13.850;2023-04-12T06:09:26;6.93;;;5.07;;
18999;SDS011;9633;50.980;13.850;2023-04-12T06:11:00;6.57;;;5.37;;
18999;SDS011;9633;50.980;13.850;2023-04-12T06:12:33;7.20;;;5.10;;
18999;SDS011;9633;50.980;13.850;2023-04-12T06:14:06;7.00;;;5.10;;
18999;SDS011;9633;50.980;13.850;2023-04-12T06:15:43;6.70;;;5.60;;
18999;SDS011;9633;50.980;13.850;2023-04-12T06:17:16;6.90;;;5.90;;
18999;SDS011;9633;50.980;13.850;2023-04-12T06:18:50;8.33;;;5.87;;
18999;SDS011;9633;50.980;13.850;2023-04-12T06:20:23;7.33;;;5.63;;
18999;SDS011;9633;50.980;13.850;2023-04-12T06:21:56;10.00;;;5.93;;
18999;SDS011;9633;50.980;13.850;2023-04-12T06:23:30;8.00;;;6.40;;
18999;SDS011;9633;50.980;13.850;2023-04-12T06:25:03;8.77;;;6.27;;
18999;SDS011;9633;50.980;13.850;2023-04-12T06:26:38;6.83;;;5.63;;
18999;SDS011;9633;50.980;13.850;2023-04-12T06:28:13;8.77;;;5.57;;
18999;SDS011;9633;50.980;13.850;2023-04-12T06:29:50;8.97;;;6.60;;
18999;SDS011;9633;50.980;13.850;2023-04-12T06:31:25;9.10;;;6.20;;
18999;SDS011;9633;50.980;13.850;2023-04-12T06:32:59;7.00;;;5.90;;
18999;SDS011;9633;50.980;13.850;2023-04-12T06:34:33;7.27;;;6.43;;
18999;SDS011;9633;50.980;13.850;2023-04-12T06:36:10;8.10;;;5.80;;
18999;SDS011;9633;50.980;13.850;2023-04-12T06:37:45;7.63;;;6.20;;
18999;SDS011;9633;50.980;13.850;2023-04-12T06:39:18;8.33;;;6.60;;
18999;SDS011;9633;50.980;13.850;2023-04-12T06:40:52;8.97;;;6.10;;
18999;SDS011;9633;50.980;13.850;2023-04-12T06:42:25;9.23;;;6.20;;
18999;SDS011;9633;50.980;13.850;2023-04-12T06:43:59;8.17;;;6.27;;
18999;SDS011;9633;50.980;13.850;2023-04-12T06:45:32;9.17;;;6.27;;
18999;SDS011;9633;50.980;13.850;2023-04-12T06:47:07;8.67;;;6.53;;
18999;SDS011;9633;50.980;13.850;2023-04-12T06:48:40;9.17;;;5.90;;
18999;SDS011;9633;50.980;13.850;2023-04-12T06:50:13;7.57;;;6.40;;
18999;SDS011;9633;50.980;13.850;2023-04-12T06:51:48;7.37;;;6.20;;
18999;SDS011;9633;50.980;13.850;2023-04-12T06:53:21;9.17;;;6.10;;
18999;SDS011;9633;50.980;13.850;2023-04-12T06:54:55;8.53;;;6.27;;
18999;SDS011;9633;50.980;13.850;2023-04-12T06:56:28;8.23;;;6.67;;
18999;SDS011;9633;50.980;13.850;2023-04-12T06:58:01;8.07;;;6.27;;
18999;SDS011;9633;50.980;13.850;2023-04-12T06:59:34;8.17;;;6.30;;
18999;SDS011;9633;50.980;13.850;2023-04-12T07:01:08;8.40;;;6.00;;
18999;SDS011;9633;50.980;13.850;2023-04-12T07:02:43;8.17;;;6.00;;
18999;SDS011;9633;50.980;13.850;2023-04-12T07:04:16;7.33;;;6.13;;
18999;SDS011;9633;50.980;13.850;2023-04-12T07:05:49;8.47;;;6.10;;
18999;SDS011;9633;50.980;13.850;2023-04-12T07:07:26;7.97;;;5.87;;
18999;SDS011;9633;50.980;13.850;2023-04-12T07:08:59;9.03;;;6.00;;
18999;SDS011;9633;50.980;13.850;2023-04-12T07:10:32;8.50;;;5.63;;
18999;SDS011;9633;50.980;13.850;2023-04-12T07:12:06;8.13;;;6.17;;
18999;SDS011;9633;50.980;13.850;2023-04-12T07:13:39;8.90;;;6.90;;
18999;SDS011;9633;50.980;13.850;2023-04-12T07:15:12;7.83;;;6.23;;
18999;SDS011;9633;50.980;13.850;2023-04-12T07:16:45;9.53;;;7.20;;
18999;SDS011;9633;50.980;13.850;2023-04-12T07:18:20;9.40;;;6.70;;
18999;SDS011;9633;50.980;13.850;2023-04-12T07:19:53;7.30;;;6.43;;
18999;SDS011;9633;50.980;13.850;2023-04-12T07:21:27;7.50;;;6.23;;
18999;SDS011;9633;50.980;13.850;2023-04-12T07:23:00;7.60;;;5.73;;
18999;SDS011;9633;50.980;13.850;2023-04-12T07:24:33;7.40;;;5.53;;
18999;SDS011;9633;50.980;13.850;2023-04-12T07:26:06;7.60;;;5.70;;
18999;SDS011;9633;50.980;13.850;2023-04-12T07:27:39;8.53;;;5.70;;
18999;SDS011;9633;50.980;13.850;2023-04-12T07:29:13;9.17;;;5.93;;
18999;SDS011;9633;50.980;13.850;2023-04-12T07:30:47;8.70;;;5.90;;
18999;SDS011;9633;50.980;13.850;2023-04-12T07:32:20;6.83;;;5.50;;
18999;SDS011;9633;50.980;13.850;2023-04-12T07:33:55;7.53;;;5.40;;
18999;SDS011;9633;50.980;13.850;2023-04-12T07:35:29;6.53;;;5.20;;
18999;SDS011;9633;50.980;13.850;2023-04-12T07:37:02;9.53;;;5.80;;
18999;SDS011;9633;50.980;13.850;2023-04-12T07:38:35;7.10;;;5.27;;
18999;SDS011;9633;50.980;13.850;2023-04-12T07:40:08;6.17;;;5.00;;
18999;SDS011;9633;50.980;13.850;2023-04-12T07:41:41;9.13;;;5.63;;
18999;SDS011;9633;50.980;13.850;2023-04-12T07:43:16;6.67;;;5.03;;
18999;SDS011;9633;50.980;13.850;2023-04-12T07:44:49;7.03;;;4.77;;
18999;SDS011;9633;50.980;13.850;2023-04-12T07:46:22;6.70;;;5.10;;
18999;SDS011;9633;50.980;13.850;2023-04-12T07:47:56;5.43;;;4.70;;
18999;SDS011;9633;50.980;13.850;2023-04-12T07:49:30;7.73;;;5.00;;
18999;SDS011;9633;50.980;13.850;2023-04-12T07:51:04;5.70;;;3.60;;
18999;SDS011;9633;50.980;13.850;2023-04-12T07:52:37;5.23;;;3.97;;
18999;SDS011;9633;50.980;13.850;2023-04-12T07:54:11;4.87;;;3.63;;
18999;SDS011;9633;50.980;13.850;2023-04-12T07:55:44;5.30;;;3.83;;
18999;SDS011;9633;50.980;13.850;2023-04-12T07:57:17;4.60;;;3.83;;
18999;SDS011;9633;50.980;13.850;2023-04-12T07:58:50;8.00;;;4.30;;
18999;SDS011;9633;50.980;13.850;2023-04-12T08:00:24;6.73;;;3.97;;
18999;SDS011;9633;50.980;13.850;2023-04-12T08:01:57;4.07;;;1.70;;
18999;SDS011;9633;50.980;13.850;2023-04-12T08:03:32;5.20;;;2.60;;
18999;SDS011;9633;50.980;13.850;2023-04-12T08:05:07;3.83;;;1.30;;
18999;SDS011;9633;50.980;13.850;2023-04-12T08:06:41;2.90;;;1.27;;
18999;SDS011;9633;50.980;13.850;2023-04-12T08:08:14;2.77;;;1.37;;
18999;SDS011;9633;50.980;13.850;2023-04-12T08:09:47;4.20;;;1.10;;
18999;SDS011;9633;50.980;13.850;2023-04-12T08:11:21;3.00;;;1.30;;
18999;SDS011;9633;50.980;13.850;2023-04-12T08:12:54;3.63;;;1.40;;
18999;SDS011;9633;50.980;13.850;2023-04-12T08:14:27;3.23;;;1.40;;
18999;SDS011;9633;50.980;13.850;2023-04-12T08:16:00;4.40;;;1.60;;
18999;SDS011;9633;50.980;13.850;2023-04-12T08:17:33;4.50;;;1.47;;
18999;SDS011;9633;50.980;13.850;2023-04-12T08:19:06;3.60;;;1.40;;
18999;SDS011;9633;50.980;13.850;2023-04-12T08:20:41;1.73;;;1.30;;
18999;SDS011;9633;50.980;13.850;2023-04-12T08:22:15;4.43;;;1.53;;
18999;SDS011;9633;50.980;13.850;2023-04-12T08:23:48;3.00;;;1.20;;
18999;SDS011;9633;50.980;13.850;2023-04-12T08:25:22;3.63;;;1.37;;
18999;SDS011;9633;50.980;13.850;2023-04-12T08:26:55;3.70;;;1.40;;
18999;SDS011;9633;50.980;13.850;2023-04-12T08:28:28;2.47;;;1.30;;
18999;SDS011;9633;50.980;13.850;2023-04-12T08:30:01;2.70;;;1.30;;
18999;SDS011;9633;50.980;13.850;2023-04-12T08:31:35;2.83;;;1.40;;
18999;SDS011;9633;50.980;13.850;2023-04-12T08:33:08;4.10;;;1.70;;
18999;SDS011;9633;50.980;13.850;2023-04-12T08:34:41;4.10;;;1.40;;
18999;SDS011;9633;50.980;13.850;2023-04-12T08:36:18;4.27;;;1.43;;
18999;SDS011;9633;50.980;13.850;2023-04-12T08:37:51;2.97;;;1.30;;
18999;SDS011;9633;50.980;13.850;2023-04-12T08:39:24;3.37;;;1.37;;
18999;SDS011;9633;50.980;13.850;2023-04-12T08:40:57;4.90;;;1.80;;
18999;SDS011;9633;50.980;13.850;2023-04-12T08:42:34;3.40;;;1.43;;
18999;SDS011;9633;50.980;13.850;2023-04-12T08:44:08;3.13;;;1.40;;
18999;SDS011;9633;50.980;13.850;2023-04-12T08:45:43;4.80;;;1.67;;
18999;SDS011;9633;50.980;13.850;2023-04-12T08:47:16;3.97;;;1.60;;
18999;SDS011;9633;50.980;13.850;2023-04-12T08:48:50;3.87;;;1.80;;
18999;SDS011;9633;50.980;13.850;2023-04-12T08:50:25;3.03;;;1.40;;
18999;SDS011;9633;50.980;13.850;2023-04-12T08:52:02;3.53;;;1.63;;
18999;SDS011;9633;50.980;13.850;2023-04-12T08:53:37;4.20;;;1.20;;
18999;SDS011;9633;50.980;13.850;2023-04-12T08:55:10;5.23;;;1.53;;
18999;SDS011;9633;50.980;13.850;2023-04-12T08:56:44;4.33;;;1.77;;
18999;SDS011;9633;50.980;13.850;2023-04-12T08:58:18;4.47;;;1.20;;
18999;SDS011;9633;50.980;13.850;2023-04-12T08:59:52;4.33;;;1.50;;
18999;SDS011;9633;50.980;13.850;2023-04-12T09:01:27;5.83;;;1.60;;
18999;SDS011;9633;50.980;13.850;2023-04-12T09:03:00;2.70;;;1.43;;
18999;SDS011;9633;50.980;13.850;2023-04-12T09:04:33;3.57;;;1.50;;
18999;SDS011;9633;50.980;13.850;2023-04-12T09:06:19;3.93;;;1.60;;
18999;SDS011;9633;50.980;13.850;2023-04-12T09:07:53;4.10;;;1.50;;
18999;SDS011;9633;50.980;13.850;2023-04-12T09:11:21;4.50;;;1.70;;
18999;SDS011;9633;50.980;13.850;2023-04-12T09:12:56;3.90;;;1.73;;
18999;SDS011;9633;50.980;13.850;2023-04-12T09:14:29;3.37;;;1.73;;
18999;SDS011;9633;50.980;13.850;2023-04-12T09:16:03;3.90;;;1.87;;
18999;SDS011;9633;50.980;13.850;2023-04-12T09:17:37;4.50;;;1.57;;
18999;SDS011;9633;50.980;13.850;2023-04-12T09:19:11;4.00;;;1.80;;
18999;SDS011;9633;50.980;13.850;2023-04-12T09:20:44;5.80;;;1.63;;
18999;SDS011;9633;50.980;13.850;2023-04-12T09:22:17;2.47;;;1.70;;
18999;SDS011;9633;50.980;13.850;2023-04-12T09:24:01;5.70;;;2.20;;
18999;SDS011;9633;50.980;13.850;2023-04-12T09:25:42;4.00;;;1.87;;
18999;SDS011;9633;50.980;13.850;2023-04-12T09:27:18;4.27;;;2.00;;
18999;SDS011;9633;50.980;13.850;2023-04-12T09:28:52;3.47;;;2.20;;
18999;SDS011;9633;50.980;13.850;2023-04-12T09:30:25;4.77;;;2.47;;
18999;SDS011;9633;50.980;13.850;2023-04-12T09:31:59;4.50;;;1.90;;
18999;SDS011;9633;50.980;13.850;2023-04-12T09:33:35;5.50;;;1.93;;